createdAt,value
2023-02-13T00:05:04.249Z,26
2023-02-13T00:15:10.715Z,32
2023-02-13T00:25:15.240Z,32
2023-02-13T00:35:20.441Z,29
2023-02-13T00:45:25.795Z,24
2023-02-13T00:55:30.728Z,23
2023-02-13T01:05:36.277Z,25
2023-02-13T01:15:40.708Z,25
2023-02-13T01:25:48.179Z,24
2023-02-13T01:35:53.532Z,25
2023-02-13T01:45:58.960Z,28
2023-02-13T01:56:06.257Z,27
2023-02-13T02:06:12.763Z,24
2023-02-13T02:16:17.303Z,23
2023-02-13T02:26:23.714Z,22
2023-02-13T02:36:29.816Z,26
2023-02-13T02:46:34.572Z,27
2023-02-13T02:56:39.773Z,28
2023-02-13T03:06:45.266Z,29
2023-02-13T03:16:52.630Z,28
2023-02-13T03:26:57.516Z,27
2023-02-13T03:37:02.618Z,27
2023-02-13T03:47:07.553Z,24
2023-02-13T03:57:13.743Z,25
2023-02-13T04:07:18.881Z,22
2023-02-13T04:17:23.943Z,23
2023-02-13T04:27:29.697Z,24
2023-02-13T04:37:35.786Z,25
2023-02-13T04:47:41.842Z,24
2023-02-13T04:57:46.868Z,29
2023-02-13T05:07:52.679Z,28
2023-02-13T05:17:58.807Z,26
2023-02-13T05:28:04.001Z,23
2023-02-13T05:38:11.273Z,22
2023-02-13T05:48:17.994Z,22
2023-02-13T05:58:21.755Z,26
2023-02-13T06:08:28.353Z,22
2023-02-13T06:18:35.673Z,27
2023-02-13T06:28:41.964Z,24
2023-02-13T06:38:48.123Z,24
2023-02-13T06:48:54.386Z,23
2023-02-13T06:58:59.817Z,23
2023-02-13T07:09:07.630Z,25
2023-02-13T07:19:14.631Z,16
2023-02-13T07:29:19.773Z,24
2023-02-13T07:39:24.446Z,21
2023-02-13T07:49:29.939Z,21
2023-02-13T07:59:38.580Z,18
2023-02-13T08:09:43.072Z,22
2023-02-13T08:19:48.508Z,19
2023-02-13T08:29:55.635Z,19
2023-02-13T08:40:02.135Z,23
2023-02-13T08:50:07.296Z,20
2023-02-13T09:00:12.625Z,19
2023-02-13T09:10:19.216Z,19
2023-02-13T09:20:25.420Z,18
2023-02-13T09:30:33.503Z,16
2023-02-13T09:40:37.822Z,17
2023-02-13T09:50:42.533Z,20
2023-02-13T10:00:46.997Z,20
2023-02-13T10:10:53.080Z,19
2023-02-13T10:20:59.328Z,23
2023-02-13T10:31:06.219Z,21
2023-02-13T10:41:13.499Z,26
2023-02-13T10:51:19.823Z,18
2023-02-13T11:01:25.141Z,18
2023-02-13T11:11:31.884Z,19
2023-02-13T11:21:37.043Z,18
2023-02-13T11:31:45.075Z,18
2023-02-13T11:41:48.329Z,21
2023-02-13T11:51:54.074Z,18
2023-02-13T12:01:59.274Z,20
2023-02-13T12:12:06.604Z,19
2023-02-13T12:22:10.359Z,19
2023-02-13T12:32:16.552Z,23
2023-02-13T12:42:21.420Z,18
2023-02-13T12:52:27.501Z,18
2023-02-13T13:02:36.437Z,15
2023-02-13T13:12:42.827Z,15
2023-02-13T13:22:49.098Z,14
2023-02-13T13:32:54.801Z,14
2023-02-13T13:43:00.645Z,17
2023-02-13T13:53:05.697Z,11
2023-02-13T14:03:11.174Z,13
2023-02-13T14:13:15.771Z,16
2023-02-13T14:23:21.216Z,16
2023-02-13T14:33:27.398Z,14
2023-02-13T14:43:33.632Z,15
2023-02-13T14:53:39.427Z,14
2023-02-13T15:03:44.328Z,17
2023-02-13T15:13:49.840Z,13
2023-02-13T15:23:54.929Z,18
2023-02-13T15:34:01.931Z,17
2023-02-13T15:44:07.040Z,20
2023-02-13T15:54:12.128Z,19
2023-02-13T16:04:17.793Z,15
2023-02-13T16:14:23.983Z,23
2023-02-13T16:24:29.208Z,28
2023-02-13T16:34:34.801Z,22
2023-02-13T16:44:39.585Z,20
2023-02-13T16:54:46.728Z,24
2023-02-13T17:04:52.360Z,26
2023-02-13T17:14:58.896Z,32
2023-02-13T17:25:04.300Z,32
2023-02-13T17:35:08.779Z,34
2023-02-13T17:45:14.173Z,31
2023-02-13T17:55:19.664Z,44
2023-02-13T18:05:26.150Z,36
2023-02-13T18:15:32.373Z,28
2023-02-13T18:25:38.431Z,48
2023-02-13T18:35:42.874Z,40
2023-02-13T18:45:49.215Z,43
2023-02-13T18:55:54.606Z,54
2023-02-13T19:06:02.478Z,44
2023-02-13T19:16:09.179Z,43
2023-02-13T19:26:14.873Z,46
2023-02-13T19:36:19.927Z,49
2023-02-13T19:46:24.612Z,46
2023-02-13T19:56:29.271Z,32
2023-02-13T20:06:34.601Z,35
2023-02-13T20:16:39.925Z,35
2023-02-13T20:26:46.331Z,44
2023-02-13T20:36:51.953Z,46
2023-02-13T20:46:57.046Z,45
2023-02-13T20:57:01.709Z,51
2023-02-13T21:07:06.660Z,40
2023-02-13T21:17:14.790Z,40
2023-02-13T21:27:22.913Z,32
2023-02-13T21:37:27.507Z,87
2023-02-13T21:47:37.667Z,25
2023-02-13T21:57:41.287Z,26
2023-02-13T22:07:46.450Z,38
2023-02-13T22:17:52.624Z,37
2023-02-13T22:27:57.598Z,40
2023-02-13T22:38:01.782Z,36
2023-02-13T22:48:07.198Z,38
2023-02-13T22:58:13.093Z,30
2023-02-13T23:08:18.114Z,31
2023-02-13T23:18:25.793Z,27
2023-02-13T23:28:31.841Z,29
2023-02-13T23:38:38.568Z,28
2023-02-13T23:48:44.388Z,23
2023-02-13T23:58:51.085Z,22
